Terminal Aerodrome Forecast
Issued by NWS Raleigh/Durham, NC

Home | Current Version | Previous Version | Text Only | Print | Product List | Glossary On
Versions: 1 2 3 4 5 6 7 8 9 10 11 12 13 14 15 16 17 18 19 20 21 22 23 24 25 26 27 28 29 30 31 32
000
FTUS42 KRAH 032331
TAFFAY
TAF
KFAY 032331Z 0400/0424 24010KT P6SM VCTS SCT030CB SCT090
      TEMPO 0400/0401 27020G25KT 1 1/2SM TSRA SCT015 BKN025CB OVC080
     FM040300 26003KT P6SM VCSH BKN040
     FM041000 31008KT P6SM SCT015 SCT050=

USA.gov is the U.S. government's official web portal to all federal, state and local government web resources and services.